Time;durP1;ratioP1;P1;durP2;ratioP2;P2;SDS_P1;SDS_P2;PMS_P1;PMS_P2;Temp;Humidity;BMP_temperature;BMP_pressure;BME280_temperature;BME280_humidity;BME280_pressure;Samples;Min_cycle;Max_cycle;Signal;HPM_P1;HPM_P2
2023/07/14 00:01:38;;;;;;;3.03;1.40;;;;;;;;;;4998905;28;20112;-59
2023/07/14 00:04:11;;;;;;;1.70;1.20;;;;;;;;;;4996757;28;20069;-65
2023/07/14 00:06:39;;;;;;;2.00;1.45;;;;;;;;;;4997105;28;20060;-63
2023/07/14 00:09:15;;;;;;;5.15;1.92;;;;;;;;;;5000216;28;20078;-62
2023/07/14 00:11:43;;;;;;;2.17;1.42;;;;;;;;;;4989146;28;20057;-60
2023/07/14 00:14:12;;;;;;;4.38;1.85;;;;;;;;;;4996360;28;20152;-60
2023/07/14 00:16:42;;;;;;;2.13;1.60;;;;;;;;;;4996092;28;20050;-59
2023/07/14 00:19:12;;;;;;;2.72;1.70;;;;;;;;;;4994018;28;20477;-60
2023/07/14 00:21:40;;;;;;;2.40;1.58;;;;;;;;;;4998962;28;20165;-59
2023/07/14 00:24:12;;;;;;;1.30;1.15;;;;;;;;;;4998755;28;20081;-60
2023/07/14 00:26:41;;;;;;;4.70;1.15;;;;;;;;;;4994417;28;20050;-61
2023/07/14 00:29:28;;;;;;;2.20;1.42;;;;;;;;;;4999199;28;20057;-61
2023/07/14 00:31:58;;;;;;;2.28;1.30;;;;;;;;;;5000888;28;20077;-60
2023/07/14 00:34:26;;;;;;;3.33;1.65;;;;;;;;;;4999540;28;20144;-62
2023/07/14 00:36:55;;;;;;;2.75;1.48;;;;;;;;;;4997633;28;20049;-60
2023/07/14 00:39:23;;;;;;;3.00;1.48;;;;;;;;;;4998309;28;20148;-59
2023/07/14 00:41:51;;;;;;;2.17;1.30;;;;;;;;;;5001398;28;20108;-59
2023/07/14 00:44:20;;;;;;;1.60;1.33;;;;;;;;;;5001797;28;20137;-60
2023/07/14 00:46:49;;;;;;;2.88;1.50;;;;;;;;;;5000244;28;20081;-59
2023/07/14 00:49:22;;;;;;;2.10;1.48;;;;;;;;;;5000398;28;20058;-59
2023/07/14 00:51:50;;;;;;;1.98;1.33;;;;;;;;;;4998685;28;20113;-61
2023/07/14 00:54:26;;;;;;;3.60;1.38;;;;;;;;;;4999202;28;20565;-60
2023/07/14 00:56:55;;;;;;;6.38;1.48;;;;;;;;;;4997649;28;20064;-62
2023/07/14 00:59:29;;;;;;;3.88;1.70;;;;;;;;;;4999546;28;20053;-58
2023/07/14 01:02:15;;;;;;;1.63;1.30;;;;;;;;;;5012852;23;20434;-59
2023/07/14 01:04:47;;;;;;;2.25;1.38;;;;;;;;;;5004517;28;20594;-62
2023/07/14 01:07:17;;;;;;;5.15;1.60;;;;;;;;;;5003981;28;22382;-58
2023/07/14 01:09:46;;;;;;;3.13;1.10;;;;;;;;;;5010595;28;20511;-62
2023/07/14 01:12:16;;;;;;;2.28;1.48;;;;;;;;;;5005383;28;20049;-71
2023/07/14 01:14:47;;;;;;;3.10;1.38;;;;;;;;;;5004764;28;20053;-63
2023/07/14 01:17:15;;;;;;;3.10;1.27;;;;;;;;;;5004364;28;21555;-62
2023/07/14 01:19:45;;;;;;;2.38;1.70;;;;;;;;;;5002335;28;20139;-58
2023/07/14 01:22:20;;;;;;;2.35;1.45;;;;;;;;;;5004011;28;20049;-63
2023/07/14 01:24:52;;;;;;;3.03;1.42;;;;;;;;;;5000482;28;20054;-57
2023/07/14 01:27:24;;;;;;;2.70;1.60;;;;;;;;;;5005727;28;20487;-58
2023/07/14 01:29:52;;;;;;;1.85;1.35;;;;;;;;;;5004921;28;20052;-71
2023/07/14 01:32:23;;;;;;;1.58;1.40;;;;;;;;;;5005910;28;20160;-59
2023/07/14 01:34:52;;;;;;;2.83;1.60;;;;;;;;;;5002402;28;20057;-58
2023/07/14 01:37:22;;;;;;;1.60;1.50;;;;;;;;;;5004617;28;20057;-69
2023/07/14 01:39:52;;;;;;;2.15;1.40;;;;;;;;;;5003909;28;20225;-61
2023/07/14 01:42:23;;;;;;;3.85;1.65;;;;;;;;;;5005752;28;20058;-61
2023/07/14 01:44:52;;;;;;;2.80;1.50;;;;;;;;;;5002618;28;20103;-69
2023/07/14 01:47:21;;;;;;;2.15;1.30;;;;;;;;;;5002839;28;20462;-62
2023/07/14 01:49:51;;;;;;;1.98;1.30;;;;;;;;;;5003466;28;20053;-59
2023/07/14 01:52:22;;;;;;;2.17;1.52;;;;;;;;;;5001714;28;20054;-72
2023/07/14 01:54:53;;;;;;;4.75;1.60;;;;;;;;;;5003539;28;20050;-68
2023/07/14 01:57:25;;;;;;;2.08;1.45;;;;;;;;;;5006891;28;20460;-64
2023/07/14 01:59:57;;;;;;;1.95;1.17;;;;;;;;;;5005400;28;20042;-61
2023/07/14 02:02:27;;;;;;;5.50;1.50;;;;;;;;;;5003744;28;20552;-62
2023/07/14 02:04:56;;;;;;;2.58;1.38;;;;;;;;;;4996254;28;20050;-65
2023/07/14 02:07:25;;;;;;;2.28;1.67;;;;;;;;;;4982770;28;20137;-61
2023/07/14 02:09:53;;;;;;;4.47;1.50;;;;;;;;;;4980944;28;20108;-57
2023/07/14 02:12:26;;;;;;;1.92;1.40;;;;;;;;;;4979846;28;20069;-56
2023/07/14 02:14:58;;;;;;;5.32;1.30;;;;;;;;;;4983190;28;20050;-58
2023/07/14 02:17:27;;;;;;;3.05;1.35;;;;;;;;;;4984396;28;20109;-72
2023/07/14 02:19:56;;;;;;;1.63;1.30;;;;;;;;;;4983559;28;20052;-61
2023/07/14 02:22:24;;;;;;;2.25;1.48;;;;;;;;;;4983344;28;20070;-59
2023/07/14 02:24:54;;;;;;;2.40;1.10;;;;;;;;;;4984263;28;20050;-59
2023/07/14 02:27:23;;;;;;;1.92;1.40;;;;;;;;;;4982116;28;20124;-61
2023/07/14 02:29:52;;;;;;;3.78;1.65;;;;;;;;;;4988659;28;20119;-60
2023/07/14 02:32:23;;;;;;;2.90;1.40;;;;;;;;;;4986073;28;20073;-62
2023/07/14 02:34:53;;;;;;;2.03;1.48;;;;;;;;;;4991579;28;20422;-60
2023/07/14 02:37:40;;;;;;;1.88;1.27;;;;;;;;;;4998359;28;20116;-69
2023/07/14 02:40:09;;;;;;;2.15;1.30;;;;;;;;;;5003567;28;20116;-62
2023/07/14 02:42:38;;;;;;;2.30;1.52;;;;;;;;;;5004065;28;20056;-60
2023/07/14 02:45:09;;;;;;;10.10;1.48;;;;;;;;;;5004098;28;20049;-59
2023/07/14 02:47:40;;;;;;;3.15;1.40;;;;;;;;;;5003445;28;20096;-58
2023/07/14 02:50:09;;;;;;;3.20;1.48;;;;;;;;;;5007470;28;20053;-62
2023/07/14 02:52:37;;;;;;;1.52;1.30;;;;;;;;;;5006917;28;20116;-61
2023/07/14 02:55:07;;;;;;;3.08;1.30;;;;;;;;;;5005901;28;20062;-58
2023/07/14 02:57:35;;;;;;;2.03;1.55;;;;;;;;;;5003955;28;20072;-58
2023/07/14 03:00:07;;;;;;;2.38;1.20;;;;;;;;;;5005090;28;20498;-59
2023/07/14 03:02:37;;;;;;;2.97;1.40;;;;;;;;;;5004507;28;20553;-62
2023/07/14 03:05:06;;;;;;;5.65;2.03;;;;;;;;;;5003842;28;20133;-58
2023/07/14 03:07:35;;;;;;;3.38;1.60;;;;;;;;;;5007171;28;20259;-58
2023/07/14 03:10:04;;;;;;;2.10;1.20;;;;;;;;;;5004523;28;20107;-58
2023/07/14 03:12:32;;;;;;;2.03;1.42;;;;;;;;;;5006458;28;20073;-57
2023/07/14 03:15:01;;;;;;;2.55;1.48;;;;;;;;;;4997819;28;20390;-70
2023/07/14 03:17:29;;;;;;;2.20;1.63;;;;;;;;;;4999531;28;20046;-60
2023/07/14 03:19:59;;;;;;;5.57;1.80;;;;;;;;;;5003844;28;20515;-58
2023/07/14 03:22:30;;;;;;;5.00;1.55;;;;;;;;;;5001031;28;20103;-61
2023/07/14 03:25:01;;;;;;;2.00;1.20;;;;;;;;;;5001590;28;20132;-60
2023/07/14 03:27:29;;;;;;;5.55;1.40;;;;;;;;;;5001718;28;20049;-60
2023/07/14 03:29:58;;;;;;;2.47;1.23;;;;;;;;;;5003666;28;20566;-65
2023/07/14 03:32:26;;;;;;;3.03;1.45;;;;;;;;;;5001591;28;20466;-58
2023/07/14 03:34:54;;;;;;;2.65;1.50;;;;;;;;;;5003991;28;20057;-58
2023/07/14 03:37:24;;;;;;;1.85;1.13;;;;;;;;;;5005771;28;20081;-59
2023/07/14 03:39:53;;;;;;;4.53;1.40;;;;;;;;;;5006151;28;20073;-65
2023/07/14 03:42:21;;;;;;;7.00;1.58;;;;;;;;;;5002209;28;20777;-62
2023/07/14 03:44:49;;;;;;;2.50;1.48;;;;;;;;;;5002240;28;20132;-59
2023/07/14 03:47:18;;;;;;;3.65;1.33;;;;;;;;;;5004296;28;20407;-61
2023/07/14 03:49:46;;;;;;;2.08;1.13;;;;;;;;;;5004039;28;20070;-59
2023/07/14 03:52:15;;;;;;;3.70;1.45;;;;;;;;;;5001977;28;20096;-58
2023/07/14 03:54:44;;;;;;;2.90;1.65;;;;;;;;;;5003222;28;20450;-59
2023/07/14 03:57:13;;;;;;;2.72;1.50;;;;;;;;;;5005211;28;20054;-59
2023/07/14 03:59:41;;;;;;;4.22;1.42;;;;;;;;;;4998908;28;20120;-62
2023/07/14 04:02:10;;;;;;;2.00;1.27;;;;;;;;;;5000901;28;20117;-58
2023/07/14 04:04:38;;;;;;;4.00;1.45;;;;;;;;;;4998579;28;20072;-61
2023/07/14 04:07:07;;;;;;;4.72;1.77;;;;;;;;;;5001146;28;20056;-58
2023/07/14 04:09:35;;;;;;;2.28;1.60;;;;;;;;;;5000956;28;20045;-57
2023/07/14 04:12:05;;;;;;;4.78;1.63;;;;;;;;;;4998183;28;20503;-56
2023/07/14 04:14:35;;;;;;;1.83;1.25;;;;;;;;;;5000399;28;20048;-62
2023/07/14 04:17:03;;;;;;;1.80;1.45;;;;;;;;;;5003885;28;20137;-71
2023/07/14 04:19:32;;;;;;;6.95;1.90;;;;;;;;;;5004076;28;20093;-60
2023/07/14 04:22:00;;;;;;;3.20;1.42;;;;;;;;;;5004125;28;20057;-62
2023/07/14 04:24:28;;;;;;;3.17;1.80;;;;;;;;;;4998593;28;20049;-63
2023/07/14 04:26:57;;;;;;;2.28;1.30;;;;;;;;;;5002637;28;20042;-60
2023/07/14 04:29:27;;;;;;;1.92;1.40;;;;;;;;;;5002118;28;20100;-72
2023/07/14 04:31:55;;;;;;;2.55;1.70;;;;;;;;;;5000032;28;20741;-60
2023/07/14 04:34:24;;;;;;;3.63;1.60;;;;;;;;;;5001686;28;20041;-63
2023/07/14 04:36:53;;;;;;;2.80;1.73;;;;;;;;;;5003099;28;20573;-61
2023/07/14 04:39:24;;;;;;;3.28;1.75;;;;;;;;;;5003718;28;20046;-64
2023/07/14 04:41:55;;;;;;;2.67;1.65;;;;;;;;;;5005433;28;20050;-64
2023/07/14 04:44:23;;;;;;;2.22;1.52;;;;;;;;;;5003062;28;20054;-58
2023/07/14 04:46:53;;;;;;;2.83;1.40;;;;;;;;;;5001359;28;20050;-66
2023/07/14 04:49:25;;;;;;;2.90;1.60;;;;;;;;;;5001836;28;20050;-64
2023/07/14 04:51:53;;;;;;;3.55;1.52;;;;;;;;;;5002672;28;20050;-65
2023/07/14 04:54:23;;;;;;;2.58;1.65;;;;;;;;;;4999797;28;20050;-58
2023/07/14 04:56:52;;;;;;;1.98;1.25;;;;;;;;;;5004031;28;20566;-74
2023/07/14 04:59:21;;;;;;;2.40;1.50;;;;;;;;;;4999543;28;20049;-60
2023/07/14 05:01:49;;;;;;;2.97;1.48;;;;;;;;;;5000718;28;20054;-58
2023/07/14 05:04:19;;;;;;;4.03;1.80;;;;;;;;;;4995973;28;20057;-57
2023/07/14 05:06:47;;;;;;;4.05;1.48;;;;;;;;;;4998574;28;20046;-67
2023/07/14 05:09:16;;;;;;;1.55;1.23;;;;;;;;;;4999694;28;20490;-58
2023/07/14 05:11:44;;;;;;;2.25;1.40;;;;;;;;;;5003708;28;20054;-57
2023/07/14 05:14:13;;;;;;;4.15;1.48;;;;;;;;;;5001943;28;20573;-63
2023/07/14 05:16:41;;;;;;;1.77;1.30;;;;;;;;;;5003284;28;20073;-58
2023/07/14 05:19:10;;;;;;;4.72;1.63;;;;;;;;;;5004212;28;20050;-72
2023/07/14 05:21:39;;;;;;;4.20;1.70;;;;;;;;;;5006764;28;20085;-61
2023/07/14 05:24:08;;;;;;;2.45;1.38;;;;;;;;;;5003661;28;20342;-58
2023/07/14 05:26:36;;;;;;;2.55;1.50;;;;;;;;;;5004286;28;20047;-71
2023/07/14 05:29:06;;;;;;;1.63;1.25;;;;;;;;;;5004176;28;20343;-71
2023/07/14 05:31:34;;;;;;;3.38;1.50;;;;;;;;;;5006536;28;20069;-61
2023/07/14 05:34:03;;;;;;;5.75;1.60;;;;;;;;;;5004858;28;20044;-60
2023/07/14 05:36:31;;;;;;;3.58;1.48;;;;;;;;;;5005100;28;20050;-60
2023/07/14 05:39:01;;;;;;;2.88;1.70;;;;;;;;;;5004471;28;20054;-59
2023/07/14 05:41:29;;;;;;;2.08;1.60;;;;;;;;;;5002132;28;20060;-72
2023/07/14 05:43:57;;;;;;;1.70;1.60;;;;;;;;;;5002707;28;20116;-69
2023/07/14 05:46:26;;;;;;;3.15;1.48;;;;;;;;;;4983419;28;20050;-68
2023/07/14 05:48:56;;;;;;;2.42;1.75;;;;;;;;;;4985078;28;20051;-62
2023/07/14 05:51:24;;;;;;;3.60;1.60;;;;;;;;;;4984308;28;20097;-59
2023/07/14 05:53:53;;;;;;;6.70;1.67;;;;;;;;;;4983191;28;20128;-59
2023/07/14 05:56:22;;;;;;;2.17;1.40;;;;;;;;;;4984649;28;20515;-62
2023/07/14 05:58:51;;;;;;;2.50;1.70;;;;;;;;;;4983101;28;20062;-61
2023/07/14 06:01:19;;;;;;;2.70;1.70;;;;;;;;;;4979861;28;20431;-62
2023/07/14 06:03:48;;;;;;;4.60;1.73;;;;;;;;;;4980884;28;20058;-65
2023/07/14 06:06:16;;;;;;;2.75;1.60;;;;;;;;;;4999942;28;20483;-62
2023/07/14 06:08:45;;;;;;;2.33;1.23;;;;;;;;;;5002793;28;20061;-63
2023/07/14 06:11:13;;;;;;;3.20;1.58;;;;;;;;;;5000008;28;20171;-60
2023/07/14 06:13:43;;;;;;;3.75;1.77;;;;;;;;;;5001495;28;20109;-59
2023/07/14 06:16:12;;;;;;;3.33;1.48;;;;;;;;;;5001133;28;20392;-60
2023/07/14 06:18:40;;;;;;;2.33;1.60;;;;;;;;;;5001787;28;20507;-58
2023/07/14 06:21:10;;;;;;;2.38;1.45;;;;;;;;;;4999577;28;21312;-63
2023/07/14 06:23:39;;;;;;;1.92;1.45;;;;;;;;;;5005195;28;20135;-62
2023/07/14 06:26:08;;;;;;;2.28;1.60;;;;;;;;;;5005845;28;20509;-70
2023/07/14 06:28:36;;;;;;;3.47;1.63;;;;;;;;;;5005442;28;20470;-71
2023/07/14 06:31:07;;;;;;;3.60;1.58;;;;;;;;;;5004430;28;20470;-64
2023/07/14 06:33:36;;;;;;;5.75;1.80;;;;;;;;;;5006806;28;20419;-58
2023/07/14 06:36:04;;;;;;;3.30;1.30;;;;;;;;;;5004845;28;20053;-60
2023/07/14 06:38:33;;;;;;;2.75;1.45;;;;;;;;;;5005414;28;20045;-74
2023/07/14 06:41:02;;;;;;;1.75;1.35;;;;;;;;;;5004176;28;20045;-66
2023/07/14 06:43:32;;;;;;;7.82;1.50;;;;;;;;;;5002112;28;20050;-60
2023/07/14 06:46:00;;;;;;;8.00;1.60;;;;;;;;;;5004493;28;20052;-68
2023/07/14 06:48:30;;;;;;;7.20;1.45;;;;;;;;;;5002120;28;20339;-60
2023/07/14 06:50:59;;;;;;;8.98;1.40;;;;;;;;;;5003067;28;20046;-66
2023/07/14 06:53:27;;;;;;;7.15;1.95;;;;;;;;;;5004180;28;20100;-64
2023/07/14 06:55:56;;;;;;;4.32;1.40;;;;;;;;;;5003052;28;20052;-60
2023/07/14 06:58:25;;;;;;;5.43;1.30;;;;;;;;;;5003605;28;20049;-69
2023/07/14 07:00:55;;;;;;;2.97;1.52;;;;;;;;;;5004437;28;20050;-63
2023/07/14 07:03:23;;;;;;;10.95;1.98;;;;;;;;;;5004375;28;20100;-64
2023/07/14 07:05:53;;;;;;;2.13;1.40;;;;;;;;;;5004840;28;20054;-60
2023/07/14 07:08:22;;;;;;;9.57;1.60;;;;;;;;;;5002771;28;20515;-59
2023/07/14 07:10:51;;;;;;;2.03;1.60;;;;;;;;;;5001967;28;21370;-63
2023/07/14 07:13:19;;;;;;;2.90;1.60;;;;;;;;;;5004928;28;20476;-62
2023/07/14 07:15:48;;;;;;;10.52;1.40;;;;;;;;;;5003170;28;20545;-61
2023/07/14 07:18:20;;;;;;;3.13;1.30;;;;;;;;;;5000833;28;20056;-67
2023/07/14 07:20:48;;;;;;;1.63;1.10;;;;;;;;;;5005963;28;20065;-64
2023/07/14 07:23:18;;;;;;;3.17;1.10;;;;;;;;;;5005390;28;21763;-60
2023/07/14 07:25:48;;;;;;;3.78;1.52;;;;;;;;;;5003630;28;20050;-61
2023/07/14 07:28:17;;;;;;;3.33;1.65;;;;;;;;;;4999637;28;20112;-62
2023/07/14 07:30:46;;;;;;;1.92;1.05;;;;;;;;;;5003795;28;20057;-62
2023/07/14 07:33:14;;;;;;;2.28;1.52;;;;;;;;;;5002623;28;20049;-70
2023/07/14 07:35:43;;;;;;;5.20;1.40;;;;;;;;;;5002761;28;20414;-61
2023/07/14 07:38:13;;;;;;;2.83;1.65;;;;;;;;;;5002342;28;20654;-60
2023/07/14 07:40:47;;;;;;;2.78;1.33;;;;;;;;;;5003118;28;20046;-76
2023/07/14 07:43:16;;;;;;;;;;;;;;;;;;5006006;28;20041;-60
2023/07/14 07:45:49;;;;;;;2.70;1.20;;;;;;;;;;5003614;28;19929;-60
2023/07/14 07:48:17;;;;;;;1.48;1.20;;;;;;;;;;5001647;28;20143;-63
2023/07/14 07:50:46;;;;;;;4.22;1.70;;;;;;;;;;5003769;28;20513;-63
2023/07/14 07:53:14;;;;;;;4.18;1.50;;;;;;;;;;5004120;28;20247;-75
2023/07/14 07:55:52;;;;;;;2.58;1.05;;;;;;;;;;5000323;28;20073;-71
2023/07/14 07:58:24;;;;;;;6.22;1.10;;;;;;;;;;5003195;28;20057;-60
2023/07/14 08:00:53;;;;;;;1.70;1.20;;;;;;;;;;5001090;28;20053;-60
2023/07/14 08:03:21;;;;;;;5.95;1.52;;;;;;;;;;5001221;28;20058;-65
2023/07/14 08:05:50;;;;;;;2.83;1.83;;;;;;;;;;5000535;28;20065;-60
2023/07/14 08:08:19;;;;;;;2.17;1.30;;;;;;;;;;5001172;28;20527;-70
2023/07/14 08:10:49;;;;;;;6.38;1.48;;;;;;;;;;5001663;28;20068;-70
2023/07/14 08:13:17;;;;;;;3.50;1.30;;;;;;;;;;5002647;28;20126;-69
2023/07/14 08:15:45;;;;;;;3.55;1.70;;;;;;;;;;5002757;28;20135;-62
2023/07/14 08:18:14;;;;;;;2.85;1.50;;;;;;;;;;5000692;28;20054;-71
2023/07/14 08:20:42;;;;;;;5.88;1.58;;;;;;;;;;5001962;28;20584;-68
2023/07/14 08:23:15;;;;;;;9.77;1.50;;;;;;;;;;5002428;28;20057;-61
2023/07/14 08:25:43;;;;;;;4.03;1.60;;;;;;;;;;4998005;28;20064;-58
2023/07/14 08:28:13;;;;;;;3.80;1.38;;;;;;;;;;5002155;28;20050;-59
2023/07/14 08:30:42;;;;;;;3.50;1.05;;;;;;;;;;5004605;28;20042;-59
2023/07/14 08:33:11;;;;;;;2.00;1.20;;;;;;;;;;5003171;28;20470;-62
2023/07/14 08:35:40;;;;;;;2.03;1.40;;;;;;;;;;5001539;28;20046;-63
2023/07/14 08:38:09;;;;;;;5.28;1.75;;;;;;;;;;5003910;28;20072;-62
2023/07/14 08:40:40;;;;;;;2.47;1.58;;;;;;;;;;5003141;28;20072;-61
2023/07/14 08:43:16;;;;;;;5.65;1.52;;;;;;;;;;5006249;28;20395;-57
2023/07/14 08:45:46;;;;;;;4.85;1.27;;;;;;;;;;5007839;28;20745;-57
2023/07/14 08:48:22;;;;;;;4.00;1.42;;;;;;;;;;5006890;28;20132;-65
2023/07/14 08:50:51;;;;;;;3.88;1.77;;;;;;;;;;5009563;28;20061;-59
2023/07/14 08:53:21;;;;;;;4.13;1.52;;;;;;;;;;5009039;28;20636;-58
2023/07/14 08:55:50;;;;;;;3.10;1.65;;;;;;;;;;5007827;28;20054;-64
2023/07/14 08:58:24;;;;;;;4.13;1.48;;;;;;;;;;5008133;28;20045;-58
2023/07/14 09:01:02;;;;;;;2.10;1.43;;;;;;;;;;5006986;28;20487;-58
2023/07/14 09:03:37;;;;;;;2.70;1.75;;;;;;;;;;5006454;28;20139;-62
2023/07/14 09:06:11;;;;;;;2.33;1.63;;;;;;;;;;5009451;28;20581;-57
2023/07/14 09:08:40;;;;;;;3.97;1.50;;;;;;;;;;5007412;28;20037;-57
2023/07/14 09:11:13;;;;;;;3.15;1.55;;;;;;;;;;5008162;28;20045;-61
2023/07/14 09:13:48;;;;;;;2.00;1.52;;;;;;;;;;5007668;28;20069;-60
2023/07/14 09:16:17;;;;;;;1.77;1.42;;;;;;;;;;5008765;28;20089;-58
2023/07/14 09:18:52;;;;;;;3.50;1.30;;;;;;;;;;5010739;28;20551;-71
2023/07/14 09:21:23;;;;;;;1.75;1.35;;;;;;;;;;5011740;28;20065;-60
2023/07/14 09:23:59;;;;;;;4.50;1.40;;;;;;;;;;5003352;28;20133;-69
2023/07/14 09:26:31;;;;;;;2.63;1.48;;;;;;;;;;5005676;28;20050;-65
2023/07/14 09:29:06;;;;;;;3.78;1.55;;;;;;;;;;5005409;28;20045;-60
2023/07/14 09:31:38;;;;;;;2.75;1.42;;;;;;;;;;5009336;28;20452;-58
2023/07/14 09:34:13;;;;;;;2.67;1.35;;;;;;;;;;5000931;28;20141;-59
2023/07/14 09:36:42;;;;;;;4.70;1.50;;;;;;;;;;5003835;28;20049;-72
2023/07/14 09:39:15;;;;;;;3.25;1.40;;;;;;;;;;5000899;28;20054;-61
2023/07/14 09:41:46;;;;;;;2.42;1.50;;;;;;;;;;5004489;28;20578;-58
2023/07/14 09:44:17;;;;;;;1.98;1.20;;;;;;;;;;5004028;28;20147;-61
2023/07/14 09:46:48;;;;;;;2.25;1.30;;;;;;;;;;5006772;28;20085;-60
2023/07/14 09:49:22;;;;;;;1.88;1.23;;;;;;;;;;5005234;28;20077;-61
2023/07/14 09:52:04;;;;;;;1.80;1.27;;;;;;;;;;5007708;28;20042;-68
2023/07/14 09:54:35;;;;;;;1.63;1.10;;;;;;;;;;4996329;28;20090;-62
2023/07/14 09:57:04;;;;;;;1.65;1.40;;;;;;;;;;4982836;28;20042;-63
2023/07/14 09:59:35;;;;;;;3.25;1.20;;;;;;;;;;4981845;28;20062;-75
2023/07/14 10:02:04;;;;;;;3.17;1.17;;;;;;;;;;4985000;28;20038;-75
2023/07/14 10:04:36;;;;;;;3.35;1.10;;;;;;;;;;4987724;28;20109;-59
2023/07/14 10:07:33;;;;;;;5.57;1.20;;;;;;;;;;5005021;28;20057;-63
2023/07/14 10:10:07;;;;;;;1.58;0.90;;;;;;;;;;5003599;28;20050;-60
2023/07/14 10:12:36;;;;;;;1.60;1.00;;;;;;;;;;5003801;28;20072;-59
2023/07/14 10:15:20;;;;;;;1.88;1.40;;;;;;;;;;5003238;28;20457;-67
2023/07/14 10:17:52;;;;;;;1.30;1.00;;;;;;;;;;5005022;28;20100;-65
2023/07/14 10:20:22;;;;;;;1.35;1.17;;;;;;;;;;5003683;28;20045;-60
2023/07/14 10:22:52;;;;;;;2.15;1.17;;;;;;;;;;5005104;28;20054;-70
2023/07/14 10:25:21;;;;;;;5.63;1.00;;;;;;;;;;5004830;28;20419;-61
2023/07/14 10:28:00;;;;;;;1.73;1.08;;;;;;;;;;5008739;28;20107;-59
2023/07/14 10:30:37;;;;;;;2.75;1.00;;;;;;;;;;5006289;28;20081;-59
2023/07/14 10:33:11;;;;;;;1.50;1.02;;;;;;;;;;5002447;28;20096;-60
2023/07/14 10:35:39;;;;;;;1.25;0.88;;;;;;;;;;5003439;28;20053;-64
2023/07/14 10:38:14;;;;;;;1.45;1.02;;;;;;;;;;5004255;28;20045;-66
2023/07/14 10:40:47;;;;;;;1.98;1.10;;;;;;;;;;5005776;28;20147;-60
2023/07/14 10:43:20;;;;;;;1.60;1.08;;;;;;;;;;5005566;28;20050;-60
2023/07/14 10:45:51;;;;;;;4.50;1.30;;;;;;;;;;4989115;28;20046;-66
2023/07/14 10:48:24;;;;;;;1.98;1.20;;;;;;;;;;4983894;28;20042;-71
2023/07/14 10:50:56;;;;;;;2.80;1.08;;;;;;;;;;4983531;28;20503;-60
2023/07/14 10:53:26;;;;;;;2.58;1.17;;;;;;;;;;4980958;28;20070;-62
2023/07/14 10:55:57;;;;;;;1.83;1.10;;;;;;;;;;4983491;28;20077;-69
2023/07/14 10:58:30;;;;;;;1.85;1.20;;;;;;;;;;4983916;28;20058;-60
2023/07/14 11:01:02;;;;;;;1.60;1.17;;;;;;;;;;4981638;28;20523;-61
2023/07/14 11:03:37;;;;;;;1.67;0.82;;;;;;;;;;4984278;28;20062;-60
2023/07/14 11:06:10;;;;;;;2.28;1.13;;;;;;;;;;4983031;28;20137;-60
2023/07/14 11:08:38;;;;;;;2.58;1.05;;;;;;;;;;4984493;28;20487;-68
2023/07/14 11:11:10;;;;;;;2.35;1.45;;;;;;;;;;4983579;28;20054;-70
2023/07/14 11:13:44;;;;;;;2.72;1.00;;;;;;;;;;4983735;28;20089;-61
2023/07/14 11:16:16;;;;;;;1.97;0.90;;;;;;;;;;5000311;28;20673;-60
2023/07/14 11:18:50;;;;;;;2.05;1.05;;;;;;;;;;5002329;28;20076;-75
2023/07/14 11:21:22;;;;;;;2.28;0.95;;;;;;;;;;5004075;28;20076;-62
2023/07/14 11:23:54;;;;;;;1.63;0.80;;;;;;;;;;5005247;28;20087;-62
2023/07/14 11:26:24;;;;;;;2.05;1.58;;;;;;;;;;5002124;28;20498;-61
2023/07/14 11:28:54;;;;;;;1.40;1.00;;;;;;;;;;5003761;28;20105;-61
2023/07/14 11:31:26;;;;;;;2.50;1.30;;;;;;;;;;5001115;28;20045;-65
2023/07/14 11:34:00;;;;;;;2.55;1.13;;;;;;;;;;5003471;28;20560;-65
2023/07/14 11:36:36;;;;;;;2.78;1.00;;;;;;;;;;4983464;28;20109;-63
2023/07/14 11:39:18;;;;;;;1.38;0.98;;;;;;;;;;4998295;28;20499;-62
2023/07/14 11:41:47;;;;;;;1.20;1.00;;;;;;;;;;5003789;28;20038;-59
2023/07/14 11:44:20;;;;;;;2.50;1.10;;;;;;;;;;5003101;28;20517;-66
2023/07/14 11:46:49;;;;;;;2.00;1.10;;;;;;;;;;5002390;28;20092;-62
2023/07/14 11:49:25;;;;;;;2.17;1.10;;;;;;;;;;5004531;28;20054;-71
2023/07/14 11:51:55;;;;;;;2.25;1.00;;;;;;;;;;5004540;28;20132;-60
2023/07/14 11:54:25;;;;;;;1.73;1.10;;;;;;;;;;5003042;28;20054;-69
2023/07/14 11:57:00;;;;;;;2.00;1.13;;;;;;;;;;5001606;28;20073;-59
2023/07/14 11:59:28;;;;;;;;;;;;;;;;;;5005878;28;20058;-60
2023/07/14 12:02:00;;;;;;;2.13;1.00;;;;;;;;;;5001203;28;20305;-59
2023/07/14 12:04:32;;;;;;;1.30;0.93;;;;;;;;;;5001918;28;20046;-59
2023/07/14 12:07:16;;;;;;;1.35;1.00;;;;;;;;;;4996200;28;20050;-63
2023/07/14 12:09:57;;;;;;;2.53;0.90;;;;;;;;;;5001952;28;20038;-60
2023/07/14 12:12:25;;;;;;;2.00;1.17;;;;;;;;;;5003153;28;20069;-60
2023/07/14 12:14:54;;;;;;;2.17;0.98;;;;;;;;;;5001110;28;20084;-59
2023/07/14 12:17:44;;;;;;;1.35;0.93;;;;;;;;;;4999305;28;20108;-68
2023/07/14 12:20:30;;;;;;;2.75;1.20;;;;;;;;;;5005029;28;20057;-62
2023/07/14 12:23:22;;;;;;;1.58;1.10;;;;;;;;;;5002346;28;20506;-62
2023/07/14 12:25:59;;;;;;;2.85;1.15;;;;;;;;;;4992040;28;20057;-65
2023/07/14 12:28:33;;;;;;;2.45;1.30;;;;;;;;;;5004115;28;20080;-60
2023/07/14 12:31:05;;;;;;;4.13;1.00;;;;;;;;;;5002606;28;20049;-60
2023/07/14 12:33:33;;;;;;;1.15;0.88;;;;;;;;;;5004106;28;20096;-59
2023/07/14 12:36:04;;;;;;;1.00;0.90;;;;;;;;;;4999726;28;20038;-62
2023/07/14 12:38:33;;;;;;;2.78;1.20;;;;;;;;;;5004726;28;20066;-61
2023/07/14 12:41:03;;;;;;;1.67;0.90;;;;;;;;;;5002408;28;20054;-63
2023/07/14 12:43:34;;;;;;;2.03;0.95;;;;;;;;;;5004430;28;20053;-61
2023/07/14 12:46:04;;;;;;;1.05;0.82;;;;;;;;;;5002734;28;20050;-63
2023/07/14 12:48:34;;;;;;;2.20;0.90;;;;;;;;;;5002522;28;20566;-61
2023/07/14 12:51:13;;;;;;;2.42;0.93;;;;;;;;;;5002728;28;20048;-67
2023/07/14 12:53:42;;;;;;;1.05;0.88;;;;;;;;;;4999964;28;20655;-60
2023/07/14 12:56:13;;;;;;;1.17;1.00;;;;;;;;;;5002241;28;20458;-60
2023/07/14 12:58:42;;;;;;;1.52;0.95;;;;;;;;;;5002013;28;20450;-62
2023/07/14 13:01:10;;;;;;;1.30;1.00;;;;;;;;;;5003159;28;20119;-62
2023/07/14 13:03:39;;;;;;;1.63;1.10;;;;;;;;;;5004261;28;20057;-64
2023/07/14 13:06:16;;;;;;;2.00;0.90;;;;;;;;;;5002844;28;20057;-71
2023/07/14 13:08:46;;;;;;;2.72;1.10;;;;;;;;;;4999268;28;20084;-61
2023/07/14 13:11:19;;;;;;;0.88;0.80;;;;;;;;;;4999505;28;20053;-67
2023/07/14 13:13:52;;;;;;;1.80;1.13;;;;;;;;;;5002072;28;20546;-63
2023/07/14 13:16:20;;;;;;;1.17;0.77;;;;;;;;;;5003181;28;20522;-60
2023/07/14 13:18:55;;;;;;;3.78;0.82;;;;;;;;;;5002715;28;20099;-66
2023/07/14 13:21:34;;;;;;;1.80;1.08;;;;;;;;;;5004742;28;20089;-62
2023/07/14 13:24:10;;;;;;;1.17;0.93;;;;;;;;;;5000470;28;20462;-65
2023/07/14 13:26:48;;;;;;;1.77;1.05;;;;;;;;;;4974367;28;20432;-61
2023/07/14 13:29:17;;;;;;;2.38;0.95;;;;;;;;;;4983231;28;20085;-59
2023/07/14 13:31:46;;;;;;;1.80;0.82;;;;;;;;;;4982520;28;21250;-62
2023/07/14 13:34:22;;;;;;;1.52;0.80;;;;;;;;;;4984024;28;20061;-61
2023/07/14 13:36:53;;;;;;;2.60;1.10;;;;;;;;;;4983842;28;20070;-60
2023/07/14 13:39:24;;;;;;;2.92;1.00;;;;;;;;;;4982480;28;20108;-62
2023/07/14 13:41:56;;;;;;;0.98;0.88;;;;;;;;;;4984514;28;20495;-64
2023/07/14 13:44:31;;;;;;;1.50;1.00;;;;;;;;;;4983232;28;20065;-63
2023/07/14 13:47:02;;;;;;;3.40;1.00;;;;;;;;;;4981849;28;20077;-69
2023/07/14 13:49:30;;;;;;;2.72;1.15;;;;;;;;;;4984083;28;20058;-60
2023/07/14 13:52:00;;;;;;;3.15;1.13;;;;;;;;;;4982089;28;20140;-69
2023/07/14 13:54:39;;;;;;;1.60;0.90;;;;;;;;;;4981406;28;20125;-73
2023/07/14 13:57:10;;;;;;;1.10;0.90;;;;;;;;;;4982862;28;20103;-58
2023/07/14 13:59:39;;;;;;;1.42;0.80;;;;;;;;;;4982254;28;20526;-61
2023/07/14 14:02:19;;;;;;;1.55;0.90;;;;;;;;;;4984929;28;20108;-59
2023/07/14 14:04:47;;;;;;;3.28;1.00;;;;;;;;;;4984602;28;20668;-58
2023/07/14 14:07:17;;;;;;;2.72;0.88;;;;;;;;;;4984405;28;20249;-65
2023/07/14 14:09:45;;;;;;;1.73;1.00;;;;;;;;;;4984619;28;20050;-64
2023/07/14 14:12:14;;;;;;;1.35;0.90;;;;;;;;;;4981911;28;20048;-62
2023/07/14 14:14:44;;;;;;;2.67;0.98;;;;;;;;;;4984555;28;20109;-61
2023/07/14 14:17:21;;;;;;;1.77;0.90;;;;;;;;;;4982488;28;20045;-61
2023/07/14 14:19:50;;;;;;;1.10;0.82;;;;;;;;;;4980861;28;20051;-67
2023/07/14 14:22:20;;;;;;;1.70;1.00;;;;;;;;;;4984093;28;20069;-61
2023/07/14 14:24:48;;;;;;;3.00;0.90;;;;;;;;;;4980925;28;20062;-63
2023/07/14 14:27:17;;;;;;;1.30;0.80;;;;;;;;;;4983539;28;20114;-61
2023/07/14 14:29:45;;;;;;;2.03;0.80;;;;;;;;;;4984733;28;20108;-69
2023/07/14 14:32:16;;;;;;;1.65;0.80;;;;;;;;;;4984060;28;20050;-62
2023/07/14 14:34:45;;;;;;;1.98;1.00;;;;;;;;;;4980748;28;20116;-61
2023/07/14 14:37:14;;;;;;;3.58;1.05;;;;;;;;;;4983311;28;20051;-62
2023/07/14 14:39:43;;;;;;;1.27;0.98;;;;;;;;;;4982753;28;20070;-60
2023/07/14 14:42:16;;;;;;;2.70;1.00;;;;;;;;;;4983698;28;20515;-71
2023/07/14 14:44:44;;;;;;;3.05;1.17;;;;;;;;;;4987218;28;20524;-62
2023/07/14 14:47:19;;;;;;;1.48;0.70;;;;;;;;;;4990636;28;20046;-62
2023/07/14 14:49:47;;;;;;;1.75;1.00;;;;;;;;;;4990855;28;20508;-61
2023/07/14 14:52:16;;;;;;;1.10;0.95;;;;;;;;;;4991319;28;20104;-63
2023/07/14 14:54:45;;;;;;;1.48;0.80;;;;;;;;;;4993371;28;20487;-65
2023/07/14 14:57:16;;;;;;;1.95;1.20;;;;;;;;;;5003854;28;20137;-67
2023/07/14 14:59:45;;;;;;;1.40;1.00;;;;;;;;;;5003744;28;20045;-66
2023/07/14 15:02:16;;;;;;;2.38;0.90;;;;;;;;;;5002692;28;20069;-59
2023/07/14 15:04:45;;;;;;;2.13;1.20;;;;;;;;;;5001369;28;20144;-61